Columbus, NM (88029)

11:10 PM MDT on October 25, 2014 (GMT -0600)
Sapphire IABR | Change Station
CLOSE
Current Station
Personal Weather Station
Location: Columbus, NM
Elevation: 4345 ft
Nearby Weather Stations

Elev 4345 ft 31.80 °N, 107.78 °W | Updated 4 minutes ago

Clear
Clear
67.6 °F
Feels Like 67.6 °F
N
1.0
Wind Variable Wind from East
Gusts 2.0 mph

Today
High -- | Low -- °F
--% Chance of Precip.
Yesterday
High -- | Low -- °F
Precip. -- in
7:21 AM 6:27 PM
Waxing Crescent, 6% visible
Pressure 29.99 in
Visibility 10.0 miles
Clouds Clear
Dew Point 47 °F
Humidity 48%
Rainfall 0.00 in
Snow Depth Not available.
UV 0 out of 12
Pollen 5.00 out of 12
Air Quality Not available.
Flu Activity Sporadic
METAR KDMN 260453Z AUTO 27006KT 10SM CLR 16/07 A3016 RMK AO2 SLP156 T01610067

More Conditions Fewer Conditions

Pressure 29.99 in
Visibility 10.0 miles
Clouds Clear
Dew Point 47 °F
Humidity 48%
Rainfall 0.00 in
Snow Depth Not available.
UV 0 out of 12
Pollen 5.00 out of 12
Air Quality Not available.
Flu Activity Sporadic
METAR KDMN 260453Z AUTO 27006KT 10SM CLR 16/07 A3016 RMK AO2 SLP156 T01610067

More Conditions Fewer Conditions

10-Day Weather Forecast

Almanac

Astronomy

Oct. 25, 2014 Rise Set
Actual Time 7:21 AM MDT 6:27 PM MDT
Civil Twilight 6:56 AM MDT 6:52 PM MDT
Nautical Twilight 6:27 AM MDT 7:20 PM MDT
Astronomical Twilight 5:59 AM MDT 7:49 PM MDT
Moon 8:58 AM MDT (10/25) 7:57 PM MDT (10/25)
Length of Visible Light 11h 55m
Length of Day
11h 06m
Tomorrow will be 1m 46s shorter.
Waxing Crescent, 6% of the Moon is Illuminated
Oct 26
Waxing Crescent
Oct 30
First Quarter
Nov 6
Full
Nov 14
Last Quarter
Nov 22
New

Yesterday's Extremes

State Highs State Lows

Community

WunderPhotos

Upload Photos

1,765,111 photos uploaded!

Nearby

Snow Depth

Station Depth Elevation
McKnight Cabin 0 in 9240 ft
Silver Creek Divide 1 in 9000 ft
Frisco Divide 1 in 8000 ft
Sierra Blanca 0 in 10280 ft
Quemazon 1 in 9500 ft

Earthquake Activity

City Distance Mag. Time & Date
No recent earthquake activity has been reported nearby.
Minimum magnitude displayed is 2.5.

Coastal Water Temperatures

Place Temperature
No Stations Reporting

Nearby Weather Stations